Time;durP1;ratioP1;P1;durP2;ratioP2;P2;SDS_P1;SDS_P2;PMS_P1;PMS_P2;Temp;Humidity;BMP_temperature;BMP_pressure;BME280_temperature;BME280_humidity;BME280_pressure;Samples;Min_cycle;Max_cycle;Signal;HPM_P1;HPM_P2
2022/11/10 00:01:07;;;;;;;36.88;27.42;;;15.90;99.90;;;;;;4591537;19;20002;-25
2022/11/10 00:02:38;;;;;;;37.15;29.08;;;15.90;99.90;;;;;;4590099;19;20338;-23
2022/11/10 00:04:09;;;;;;;35.25;28.35;;;15.90;99.90;;;;;;4591009;19;20048;-23
2022/11/10 00:05:40;;;;;;;37.30;27.88;;;15.90;99.90;;;;;;4591069;19;20066;-26
2022/11/10 00:07:11;;;;;;;35.97;29.52;;;15.90;99.90;;;;;;4591709;19;20398;-23
2022/11/10 00:08:43;;;;;;;36.25;28.00;;;16.00;99.90;;;;;;4590141;19;20038;-24
2022/11/10 00:10:14;;;;;;;39.70;29.33;;;15.90;99.90;;;;;;4590906;19;20019;-22
2022/11/10 00:11:45;;;;;;;35.55;28.02;;;15.90;99.90;;;;;;4591388;19;20088;-23
2022/11/10 00:13:16;;;;;;;34.10;27.73;;;15.90;99.90;;;;;;4591545;19;20026;-23
2022/11/10 00:18:26;;;;;;;38.28;30.15;;;15.90;99.90;;;;;;4590954;19;20509;-23
2022/11/10 00:19:57;;;;;;;39.88;31.08;;;15.90;99.90;;;;;;4591815;19;20039;-23
2022/11/10 00:21:28;;;;;;;37.40;30.92;;;15.90;99.90;;;;;;4591139;19;20019;-22
2022/11/10 00:23:00;;;;;;;35.33;29.90;;;15.90;99.90;;;;;;4591076;19;20074;-23
2022/11/10 00:24:31;;;;;;;37.60;29.85;;;15.90;99.90;;;;;;4591359;19;20014;-22
2022/11/10 00:26:02;;;;;;;36.53;28.38;;;15.90;99.90;;;;;;4591507;19;20015;-23
2022/11/10 00:27:33;;;;;;;34.95;29.17;;;15.90;99.90;;;;;;4590863;19;20476;-23
2022/11/10 00:29:04;;;;;;;34.17;28.27;;;15.90;99.90;;;;;;4590876;19;20034;-24
2022/11/10 00:30:36;;;;;;;37.92;29.00;;;15.90;99.90;;;;;;4589369;19;20320;-23
2022/11/10 00:32:08;;;;;;;32.58;26.85;;;15.90;99.90;;;;;;4589975;19;20452;-22
2022/11/10 00:33:40;;;;;;;39.72;28.98;;;15.90;99.90;;;;;;4590378;19;20006;-23
2022/11/10 00:35:11;;;;;;;34.53;27.85;;;15.90;99.90;;;;;;4591162;19;20007;-25
2022/11/10 00:36:43;;;;;;;36.35;27.48;;;15.90;99.90;;;;;;4591247;19;20049;-22
2022/11/10 00:38:14;;;;;;;38.22;29.65;;;15.90;99.90;;;;;;4591090;19;20039;-25
2022/11/10 00:39:45;;;;;;;40.92;30.85;;;15.90;99.90;;;;;;4590626;19;20018;-22
2022/11/10 00:41:16;;;;;;;35.67;28.42;;;15.90;99.90;;;;;;4590879;19;20018;-24
2022/11/10 00:42:47;;;;;;;36.35;28.35;;;15.90;99.90;;;;;;4591255;19;20483;-23
2022/11/10 00:44:18;;;;;;;35.95;26.98;;;15.90;99.90;;;;;;4590623;19;20030;-22
2022/11/10 00:45:49;;;;;;;35.85;28.10;;;15.90;99.90;;;;;;4590677;19;20052;-23
2022/11/10 00:47:20;;;;;;;35.10;27.42;;;15.90;99.90;;;;;;4590296;19;20006;-23
2022/11/10 00:48:51;;;;;;;34.28;27.92;;;15.90;99.90;;;;;;4590175;19;20011;-22
2022/11/10 00:50:23;;;;;;;33.80;27.05;;;15.90;99.90;;;;;;4589258;19;20014;-23
2022/11/10 00:51:54;;;;;;;33.72;27.55;;;15.90;99.90;;;;;;4590464;19;20007;-23
2022/11/10 00:53:25;;;;;;;34.78;27.23;;;15.90;99.90;;;;;;4589731;19;20007;-24
2022/11/10 00:54:56;;;;;;;34.17;27.17;;;15.90;99.90;;;;;;4588423;19;20011;-23
2022/11/10 00:56:27;;;;;;;35.78;28.50;;;15.90;99.90;;;;;;4590047;19;20369;-22
2022/11/10 00:57:58;;;;;;;36.58;27.75;;;15.90;99.90;;;;;;4590737;19;20045;-23
2022/11/10 00:59:29;;;;;;;34.20;27.25;;;15.90;99.90;;;;;;4590997;19;20031;-24
2022/11/10 01:01:04;;;;;;;36.20;27.75;;;15.90;99.90;;;;;;4590063;19;20022;-22
2022/11/10 01:02:35;;;;;;;34.72;27.67;;;15.90;99.90;;;;;;4590211;19;20050;-24
2022/11/10 01:04:06;;;;;;;36.63;28.15;;;15.90;99.90;;;;;;4590423;19;20014;-23
2022/11/10 01:05:37;;;;;;;33.22;26.30;;;15.90;99.90;;;;;;4590943;19;20084;-23
2022/11/10 01:07:08;;;;;;;33.72;26.88;;;15.90;99.90;;;;;;4590090;19;20014;-23
2022/11/10 01:08:40;;;;;;;34.78;26.98;;;15.90;99.90;;;;;;4590205;19;20013;-24
2022/11/10 01:10:11;;;;;;;37.47;27.67;;;15.80;99.90;;;;;;4589206;19;20027;-24
2022/11/10 01:11:42;;;;;;;34.25;25.98;;;15.80;99.90;;;;;;4590234;19;20056;-23
2022/11/10 01:13:13;;;;;;;38.15;28.40;;;15.90;99.90;;;;;;4590167;19;20034;-24
2022/11/10 01:14:46;;;;;;;36.10;27.70;;;15.80;99.90;;;;;;4589234;19;20017;-23
2022/11/10 01:16:20;;;;;;;32.70;27.17;;;15.90;99.90;;;;;;4589645;19;20071;-23
2022/11/10 01:17:52;;;;;;;34.75;27.42;;;15.80;99.90;;;;;;4590295;19;20089;-24
2022/11/10 01:19:23;;;;;;;;;;;15.80;99.90;;;;;;4589551;19;20392;-24
2022/11/10 01:20:54;;;;;;;34.83;26.33;;;15.80;99.90;;;;;;4590049;19;19978;-23
2022/11/10 01:22:25;;;;;;;36.47;26.67;;;15.80;99.90;;;;;;4590650;19;20440;-25
2022/11/10 01:23:57;;;;;;;35.25;26.92;;;15.80;99.90;;;;;;4589952;19;20014;-23
2022/11/10 01:25:28;;;;;;;33.97;27.30;;;15.80;99.90;;;;;;4590191;19;20010;-23
2022/11/10 01:26:59;;;;;;;35.25;27.83;;;15.80;99.90;;;;;;4590491;19;20014;-23
2022/11/10 01:28:30;;;;;;;38.50;27.92;;;15.80;99.90;;;;;;4589938;19;20005;-24
2022/11/10 01:30:02;;;;;;;35.47;27.50;;;15.80;99.90;;;;;;4589888;19;20015;-23
2022/11/10 01:31:33;;;;;;;37.17;28.00;;;15.80;99.90;;;;;;4589636;19;20027;-23
2022/11/10 01:33:04;;;;;;;34.65;26.98;;;15.80;99.90;;;;;;4589894;19;20479;-22
2022/11/10 01:34:35;;;;;;;38.65;29.08;;;15.80;99.90;;;;;;4589279;19;20014;-26
2022/11/10 01:36:07;;;;;;;35.90;27.75;;;15.80;99.90;;;;;;4589831;19;20010;-23
2022/11/10 01:37:39;;;;;;;35.10;26.38;;;15.80;99.90;;;;;;4590256;19;20014;-23
2022/11/10 01:39:10;;;;;;;36.50;27.88;;;15.80;99.90;;;;;;4589948;19;20011;-23
2022/11/10 01:40:41;;;;;;;36.53;28.70;;;15.80;99.90;;;;;;4589605;19;20471;-24
2022/11/10 01:42:12;;;;;;;34.03;27.08;;;15.80;99.90;;;;;;4592140;19;20033;-23
2022/11/10 01:43:43;;;;;;;36.55;29.00;;;15.80;99.90;;;;;;4593206;19;20031;-23
2022/11/10 01:45:24;;;;;;;35.78;29.95;;;15.80;99.90;;;;;;4594264;19;20464;-23
2022/11/10 01:46:55;;;;;;;39.28;30.20;;;15.80;99.90;;;;;;4593749;19;20010;-23
2022/11/10 01:48:43;;;;;;;40.30;30.92;;;15.80;99.90;;;;;;4593579;19;20021;-23
2022/11/10 01:50:14;;;;;;;37.63;29.40;;;15.80;99.90;;;;;;4592928;19;20031;-25
2022/11/10 01:51:55;;;;;;;35.00;27.40;;;15.80;99.90;;;;;;4594094;19;20367;-23
2022/11/10 01:53:26;;;;;;;36.03;27.58;;;15.80;99.90;;;;;;4593315;19;20010;-25
2022/11/10 01:54:57;;;;;;;37.08;26.77;;;15.80;99.90;;;;;;4593012;19;20015;-24
2022/11/10 01:56:31;;;;;;;36.92;28.08;;;15.80;99.90;;;;;;4594180;19;20070;-24
2022/11/10 01:58:02;;;;;;;35.03;27.80;;;15.80;99.90;;;;;;4592978;19;20017;-23
2022/11/10 01:59:39;;;;;;;32.42;26.73;;;15.80;99.90;;;;;;4593003;19;20070;-22
2022/11/10 02:01:10;;;;;;;36.50;28.45;;;15.80;99.90;;;;;;4592741;19;20007;-23
2022/11/10 02:02:50;;;;;;;39.50;29.55;;;15.70;99.90;;;;;;4593830;19;20010;-23
2022/11/10 02:04:22;;;;;;;38.55;28.77;;;15.70;99.90;;;;;;4593160;19;20011;-23
2022/11/10 02:05:53;;;;;;;35.83;27.83;;;15.70;99.90;;;;;;4593283;19;20011;-23
2022/11/10 02:07:24;;;;;;;32.33;26.33;;;15.70;99.90;;;;;;4592630;19;20018;-24
2022/11/10 02:08:55;;;;;;;34.03;26.77;;;15.70;99.90;;;;;;4593132;19;20052;-23
2022/11/10 02:10:27;;;;;;;35.17;27.80;;;15.70;99.90;;;;;;4592749;19;20018;-23
2022/11/10 02:11:58;;;;;;;33.90;26.65;;;15.70;99.90;;;;;;4593555;19;20014;-23
2022/11/10 02:13:29;;;;;;;36.83;28.48;;;15.70;99.90;;;;;;4593814;19;20498;-22
2022/11/10 02:15:00;;;;;;;39.65;29.40;;;15.70;99.90;;;;;;4591392;19;20007;-22
2022/11/10 02:16:31;;;;;;;34.75;27.92;;;15.70;99.90;;;;;;4593851;19;20031;-24
2022/11/10 02:18:02;;;;;;;37.08;29.13;;;15.70;99.90;;;;;;4593414;19;20374;-22
2022/11/10 02:19:39;;;;;;;37.63;28.08;;;15.70;99.90;;;;;;4593642;19;20007;-25
2022/11/10 02:21:10;;;;;;;35.33;27.10;;;15.70;99.90;;;;;;4592555;19;20042;-23
2022/11/10 02:22:41;;;;;;;34.10;26.98;;;15.80;99.90;;;;;;4593410;19;20033;-22
2022/11/10 02:24:12;;;;;;;35.67;29.63;;;15.80;99.90;;;;;;4590988;19;20039;-23
2022/11/10 02:25:43;;;;;;;37.72;29.08;;;15.80;99.90;;;;;;4592754;19;20041;-23
2022/11/10 02:27:15;;;;;;;41.40;30.45;;;15.70;99.90;;;;;;4594047;19;20479;-23
2022/11/10 02:28:46;;;;;;;37.13;29.35;;;15.70;99.90;;;;;;4593649;19;20011;-24
2022/11/10 02:30:17;;;;;;;36.28;28.60;;;15.70;99.90;;;;;;4592075;19;20011;-23
2022/11/10 02:31:48;;;;;;;37.03;27.77;;;15.70;99.90;;;;;;4593268;19;20369;-23
2022/11/10 02:33:19;;;;;;;40.65;29.35;;;15.70;99.90;;;;;;4594055;19;20018;-23
2022/11/10 02:34:51;;;;;;;37.67;28.52;;;15.70;99.90;;;;;;4591243;19;20490;-22
2022/11/10 02:36:22;;;;;;;36.88;28.98;;;15.70;99.90;;;;;;4593215;19;20036;-24
2022/11/10 02:37:53;;;;;;;36.88;27.48;;;15.70;99.90;;;;;;4593785;19;20038;-26
2022/11/10 02:39:24;;;;;;;37.67;27.85;;;15.70;99.90;;;;;;4593971;19;20020;-23
2022/11/10 02:40:55;;;;;;;37.10;28.63;;;15.70;99.90;;;;;;4593223;19;20020;-22
2022/11/10 02:42:26;;;;;;;37.20;28.33;;;15.70;99.90;;;;;;4593511;19;20023;-24
2022/11/10 02:43:57;;;;;;;35.88;26.88;;;15.70;99.90;;;;;;4593734;19;20020;-23
2022/11/10 02:45:28;;;;;;;36.75;27.80;;;15.70;99.90;;;;;;4592497;19;20014;-24
2022/11/10 02:47:00;;;;;;;35.35;27.35;;;15.70;99.90;;;;;;4592452;19;20010;-23
2022/11/10 02:48:31;;;;;;;36.50;27.25;;;15.70;99.90;;;;;;4591156;19;20014;-25
2022/11/10 02:50:02;;;;;;;37.97;28.85;;;15.70;99.90;;;;;;4592828;19;20031;-23
2022/11/10 02:51:33;;;;;;;37.08;27.50;;;15.70;99.90;;;;;;4593378;19;20023;-26
2022/11/10 02:53:05;;;;;;;37.92;29.15;;;15.80;99.90;;;;;;4591909;19;20025;-23
2022/11/10 02:54:36;;;;;;;36.38;27.52;;;15.70;99.90;;;;;;4589343;19;20350;-24
2022/11/10 02:56:07;;;;;;;32.17;26.83;;;15.70;99.90;;;;;;4592678;19;20010;-23
2022/11/10 02:57:38;;;;;;;36.05;28.20;;;15.70;99.90;;;;;;4592931;19;20074;-23
2022/11/10 02:59:09;;;;;;;35.47;28.00;;;15.70;99.90;;;;;;4592751;19;20017;-23
2022/11/10 03:00:40;;;;;;;32.90;25.83;;;15.70;99.90;;;;;;4593327;19;20027;-23
2022/11/10 03:02:12;;;;;;;36.58;26.88;;;15.70;99.90;;;;;;4593476;19;20015;-22
2022/11/10 03:03:43;;;;;;;35.30;27.13;;;15.70;99.90;;;;;;4592560;19;20023;-22
2022/11/10 03:05:15;;;;;;;34.30;26.20;;;15.70;99.90;;;;;;4592853;19;20010;-24
2022/11/10 03:06:46;;;;;;;33.50;26.65;;;15.70;99.90;;;;;;4593219;19;20322;-23
2022/11/10 03:08:17;;;;;;;35.95;27.15;;;15.70;99.90;;;;;;4593640;19;20014;-23
2022/11/10 03:09:48;;;;;;;33.40;26.27;;;15.70;99.90;;;;;;4592764;19;20011;-23
2022/11/10 03:11:19;;;;;;;34.80;26.80;;;15.70;99.90;;;;;;4593107;19;20006;-23
2022/11/10 03:12:54;;;;;;;41.38;27.77;;;15.70;99.90;;;;;;4591986;19;20017;-22
2022/11/10 03:14:25;;;;;;;43.40;30.52;;;15.70;99.90;;;;;;4590682;19;20025;-24
2022/11/10 03:15:57;;;;;;;33.08;25.98;;;15.70;99.90;;;;;;4592252;19;20357;-23
2022/11/10 03:17:28;;;;;;;34.75;26.40;;;15.70;99.90;;;;;;4592995;19;20006;-27
2022/11/10 03:18:59;;;;;;;37.67;27.65;;;15.70;99.90;;;;;;4592537;19;20018;-23
2022/11/10 03:20:30;;;;;;;33.65;26.98;;;15.70;99.90;;;;;;4592229;19;20074;-23
2022/11/10 03:22:01;;;;;;;32.35;25.48;;;15.70;99.90;;;;;;4592669;19;20010;-24
2022/11/10 03:23:33;;;;;;;35.60;26.33;;;15.70;99.90;;;;;;4592581;19;20163;-23
2022/11/10 03:25:04;;;;;;;;;;;15.70;99.90;;;;;;4593440;19;20025;-22
2022/11/10 03:26:36;;;;;;;38.30;28.17;;;15.70;99.90;;;;;;4592071;19;19989;-23
2022/11/10 03:28:07;;;;;;;36.90;27.20;;;15.70;99.90;;;;;;4592309;19;20010;-22
2022/11/10 03:29:38;;;;;;;34.70;27.02;;;15.70;99.90;;;;;;4591133;19;20094;-23
2022/11/10 03:31:09;;;;;;;33.30;26.08;;;15.70;99.90;;;;;;4592007;19;20006;-24
2022/11/10 03:32:40;;;;;;;36.58;27.85;;;15.70;99.90;;;;;;4592353;19;20010;-23
2022/11/10 03:34:11;;;;;;;38.20;29.05;;;15.70;99.90;;;;;;4591644;19;20014;-23
2022/11/10 03:35:42;;;;;;;36.33;27.90;;;15.70;99.90;;;;;;4592421;19;20567;-26
2022/11/10 03:37:14;;;;;;;37.45;27.83;;;15.70;99.90;;;;;;4591769;19;20081;-22
2022/11/10 03:38:45;;;;;;;36.05;26.38;;;15.70;99.90;;;;;;4592027;19;20042;-23
2022/11/10 03:40:16;;;;;;;33.97;26.73;;;15.70;99.90;;;;;;4592503;19;20003;-23
2022/11/10 03:41:47;;;;;;;32.30;25.13;;;15.70;99.90;;;;;;4592587;19;20033;-23
2022/11/10 03:43:18;;;;;;;34.75;27.33;;;15.60;99.90;;;;;;4591872;19;20066;-23
2022/11/10 03:44:49;;;;;;;35.03;26.45;;;15.70;99.90;;;;;;4591415;19;20017;-23
2022/11/10 03:46:20;;;;;;;31.67;23.38;;;15.70;99.90;;;;;;4592092;19;20025;-22
2022/11/10 03:47:51;;;;;;;34.20;25.85;;;15.70;99.90;;;;;;4589858;19;20070;-25
2022/11/10 03:49:22;;;;;;;39.15;28.38;;;15.70;99.90;;;;;;4589984;19;20046;-22
2022/11/10 03:50:53;;;;;;;38.88;28.00;;;15.70;99.90;;;;;;4591931;19;20037;-25
2022/11/10 03:52:24;;;;;;;38.00;27.42;;;15.70;99.90;;;;;;4592463;19;20014;-22
2022/11/10 03:53:56;;;;;;;39.20;28.77;;;15.70;99.90;;;;;;4591321;19;20010;-22
2022/11/10 03:55:27;;;;;;;37.28;26.70;;;15.70;99.90;;;;;;4591924;19;20018;-23
2022/11/10 03:56:59;;;;;;;38.45;28.27;;;15.70;99.90;;;;;;4591039;19;20003;-23
2022/11/10 03:58:30;;;;;;;35.72;26.23;;;15.70;99.90;;;;;;4591362;19;20025;-23
2022/11/10 04:00:02;;;;;;;29.48;24.00;;;15.70;99.90;;;;;;4591500;19;20364;-24
2022/11/10 04:01:33;;;;;;;31.70;25.50;;;15.60;99.90;;;;;;4591773;19;20006;-23
2022/11/10 04:03:04;;;;;;;28.70;22.65;;;15.70;99.90;;;;;;4592092;19;20091;-23
2022/11/10 04:10:06;;;;;;;30.25;22.42;;;15.70;99.90;;;;;;4591497;19;20070;-24
2022/11/10 04:17:06;;;;;;;30.63;23.90;;;15.70;99.90;;;;;;4590098;19;20018;-23
2022/11/10 04:18:37;;;;;;;29.85;24.35;;;15.70;99.90;;;;;;4590998;19;20017;-22
2022/11/10 04:20:08;;;;;;;31.60;23.83;;;15.70;99.90;;;;;;4591419;19;20010;-23
2022/11/10 04:21:39;;;;;;;27.83;22.08;;;15.70;99.90;;;;;;4591478;19;20014;-24
2022/11/10 04:23:30;;;;;;;31.75;23.58;;;15.70;99.90;;;;;;4591184;19;20534;-22
2022/11/10 04:25:01;;;;;;;31.15;22.75;;;15.70;99.90;;;;;;4589765;19;20520;-23
2022/11/10 04:26:32;;;;;;;27.85;22.45;;;15.70;99.90;;;;;;4591032;19;20021;-23
2022/11/10 04:28:03;;;;;;;30.52;24.33;;;15.70;99.90;;;;;;4591579;19;20010;-24
2022/11/10 04:29:35;;;;;;;31.08;23.42;;;15.70;99.90;;;;;;4591260;19;20078;-22
2022/11/10 04:31:06;;;;;;;29.40;24.05;;;15.70;99.90;;;;;;4590659;19;20011;-24
2022/11/10 04:32:37;;;;;;;29.35;23.08;;;15.70;99.90;;;;;;4591470;19;20015;-23
2022/11/10 04:34:13;;;;;;;26.30;22.17;;;15.70;99.90;;;;;;4590869;19;20058;-24
2022/11/10 04:35:44;;;;;;;28.00;21.98;;;15.70;99.90;;;;;;4591173;19;20503;-23
2022/11/10 04:37:15;;;;;;;27.30;22.23;;;15.60;99.90;;;;;;4591050;19;20038;-25
2022/11/10 04:38:46;;;;;;;28.98;22.70;;;15.60;99.90;;;;;;4590598;19;20353;-23
2022/11/10 04:40:17;;;;;;;29.10;23.05;;;15.70;99.90;;;;;;4591086;19;20038;-23
2022/11/10 04:41:49;;;;;;;29.40;22.75;;;15.70;99.90;;;;;;4590749;19;20017;-23
2022/11/10 04:43:20;;;;;;;27.85;22.30;;;15.70;99.90;;;;;;4590973;19;20015;-22
2022/11/10 04:44:51;;;;;;;30.50;22.83;;;15.70;99.90;;;;;;4591213;19;20013;-23
2022/11/10 04:46:36;;;;;;;29.45;22.85;;;15.60;99.90;;;;;;4591261;19;20011;-22
2022/11/10 04:48:07;;;;;;;29.05;22.60;;;15.60;99.90;;;;;;4589257;19;20011;-22
2022/11/10 04:49:38;;;;;;;29.25;22.40;;;15.70;99.90;;;;;;4590649;19;20010;-24
2022/11/10 04:51:09;;;;;;;30.58;23.80;;;15.70;99.90;;;;;;4591165;19;20460;-23
2022/11/10 04:52:40;;;;;;;33.95;23.25;;;15.60;99.90;;;;;;4589578;19;20018;-23
2022/11/10 04:54:12;;;;;;;31.40;23.48;;;15.60;99.90;;;;;;4589812;19;20019;-23
2022/11/10 04:55:43;;;;;;;29.55;22.40;;;15.60;99.90;;;;;;4590921;19;20010;-23
2022/11/10 04:57:14;;;;;;;28.25;22.98;;;15.60;99.90;;;;;;4590614;19;20015;-22
2022/11/10 04:58:45;;;;;;;29.65;21.88;;;15.70;99.90;;;;;;4589921;19;19995;-22
2022/11/10 05:00:17;;;;;;;27.05;22.05;;;15.60;99.90;;;;;;4590560;19;20358;-24
2022/11/10 05:01:48;;;;;;;28.88;22.75;;;15.60;99.90;;;;;;4590513;19;20473;-23
2022/11/10 05:03:19;;;;;;;27.23;21.98;;;15.60;99.90;;;;;;4591362;19;20006;-24
2022/11/10 05:04:50;;;;;;;27.10;21.42;;;15.60;99.90;;;;;;4590653;19;20349;-23
2022/11/10 05:06:21;;;;;;;27.98;21.45;;;15.60;99.90;;;;;;4590317;19;20346;-23
2022/11/10 05:07:52;;;;;;;27.25;21.25;;;15.60;99.90;;;;;;4590414;19;20468;-22
2022/11/10 05:09:23;;;;;;;26.58;22.13;;;15.60;99.90;;;;;;4590703;19;20011;-23
2022/11/10 05:10:54;;;;;;;25.70;21.83;;;15.60;99.90;;;;;;4590177;19;20007;-22
2022/11/10 05:12:26;;;;;;;27.90;20.90;;;15.60;99.90;;;;;;4590517;19;20011;-22
2022/11/10 05:13:57;;;;;;;26.67;20.33;;;15.70;99.90;;;;;;4590558;19;20010;-22
2022/11/10 05:15:28;;;;;;;26.98;21.92;;;15.60;99.90;;;;;;4590626;19;20027;-22
2022/11/10 05:16:59;;;;;;;28.77;21.60;;;15.60;99.90;;;;;;4588789;19;20349;-22
2022/11/10 05:18:30;;;;;;;29.20;22.15;;;15.70;99.90;;;;;;4590155;19;20038;-23
2022/11/10 05:20:01;;;;;;;31.15;23.65;;;15.60;99.90;;;;;;4590317;19;20015;-22
2022/11/10 05:21:32;;;;;;;28.67;22.13;;;15.70;99.90;;;;;;4590212;19;20328;-24
2022/11/10 05:24:53;;;;;;;27.48;21.50;;;15.60;99.90;;;;;;4589851;19;20022;-25
2022/11/10 05:26:24;;;;;;;28.13;20.95;;;15.60;99.90;;;;;;4590567;19;20014;-23
2022/11/10 05:27:55;;;;;;;29.13;21.02;;;15.60;99.90;;;;;;4589312;19;20006;-23
2022/11/10 05:29:26;;;;;;;23.58;19.80;;;15.60;99.90;;;;;;4589695;19;20015;-23
2022/11/10 05:30:57;;;;;;;26.35;21.35;;;15.60;99.90;;;;;;4590092;19;20011;-23
2022/11/10 05:32:28;;;;;;;26.38;20.73;;;15.60;99.90;;;;;;4589122;19;20011;-24
2022/11/10 05:33:59;;;;;;;28.25;21.73;;;15.60;99.90;;;;;;4589320;19;20018;-22
2022/11/10 05:35:31;;;;;;;26.48;20.83;;;15.60;99.90;;;;;;4590055;19;20025;-23
2022/11/10 05:37:03;;;;;;;25.90;20.67;;;15.60;99.90;;;;;;4589931;19;20010;-23
2022/11/10 05:38:34;;;;;;;24.98;20.20;;;15.60;99.90;;;;;;4590064;19;20040;-23
2022/11/10 05:40:05;;;;;;;28.83;21.02;;;15.60;99.90;;;;;;4588496;19;20495;-22
2022/11/10 05:41:36;;;;;;;29.02;20.85;;;15.60;99.90;;;;;;4589283;19;20026;-23
2022/11/10 05:43:08;;;;;;;28.60;20.83;;;15.60;99.90;;;;;;4589531;19;20077;-23
2022/11/10 05:44:39;;;;;;;31.10;23.33;;;15.60;99.90;;;;;;4589985;19;20472;-25
2022/11/10 05:46:10;;;;;;;25.33;19.80;;;15.60;99.90;;;;;;4589780;19;20010;-24
2022/11/10 05:47:41;;;;;;;29.20;20.90;;;15.60;99.90;;;;;;4587681;19;20015;-23
2022/11/10 05:49:12;;;;;;;25.73;20.77;;;15.60;99.90;;;;;;4587616;19;20071;-22
2022/11/10 05:50:44;;;;;;;26.40;20.73;;;15.60;99.90;;;;;;4589862;19;20479;-23
2022/11/10 05:52:15;;;;;;;26.45;19.65;;;15.60;99.90;;;;;;4590396;19;20055;-22
2022/11/10 05:53:46;;;;;;;25.77;20.42;;;15.60;99.90;;;;;;4589301;19;20010;-23
2022/11/10 05:55:18;;;;;;;26.85;21.10;;;15.60;99.90;;;;;;4588133;19;20026;-23
2022/11/10 05:56:49;;;;;;;25.55;20.70;;;15.60;99.90;;;;;;4588040;19;20082;-23
2022/11/10 05:58:20;;;;;;;25.17;19.80;;;15.60;99.90;;;;;;4589046;19;20039;-25
2022/11/10 05:59:51;;;;;;;25.67;21.33;;;15.60;99.90;;;;;;4590172;19;19998;-25
2022/11/10 06:01:23;;;;;;;28.15;20.30;;;15.60;99.90;;;;;;4589979;19;20007;-23
2022/11/10 06:03:01;;;;;;;26.48;18.63;;;15.60;99.90;;;;;;4589251;19;20015;-22
2022/11/10 06:04:32;;;;;;;23.98;19.02;;;15.70;99.90;;;;;;4588422;19;20007;-25
2022/11/10 06:06:03;;;;;;;24.90;19.08;;;15.60;99.90;;;;;;4588925;19;20048;-23
2022/11/10 06:07:36;;;;;;;23.35;19.45;;;15.60;99.90;;;;;;4589548;19;20011;-23
2022/11/10 06:09:07;;;;;;;26.15;20.55;;;15.60;99.90;;;;;;4589174;19;20017;-22
2022/11/10 06:10:39;;;;;;;25.10;19.40;;;15.60;99.90;;;;;;4589529;19;20002;-22
2022/11/10 06:12:10;;;;;;;26.50;20.55;;;15.60;99.90;;;;;;4589427;19;20015;-22
2022/11/10 06:13:41;;;;;;;25.35;20.40;;;15.60;99.90;;;;;;4589475;19;20022;-23
2022/11/10 06:15:14;;;;;;;31.38;25.10;;;15.60;99.90;;;;;;4587921;19;20015;-22
2022/11/10 06:16:45;;;;;;;31.23;21.90;;;15.60;99.90;;;;;;4589177;19;20014;-24
2022/11/10 06:18:16;;;;;;;30.42;22.52;;;15.60;99.90;;;;;;4588300;19;20011;-22
2022/11/10 06:19:48;;;;;;;28.80;22.23;;;15.60;99.90;;;;;;4587814;19;20015;-23
2022/11/10 06:21:19;;;;;;;26.17;22.02;;;15.60;99.90;;;;;;4588498;19;20018;-23
2022/11/10 06:23:08;;;;;;;29.73;23.50;;;15.60;99.90;;;;;;4589722;19;19998;-22
2022/11/10 06:24:39;;;;;;;26.30;20.83;;;15.70;99.90;;;;;;4588658;19;19998;-24
2022/11/10 06:26:10;;;;;;;26.70;20.38;;;15.60;99.90;;;;;;4588794;19;20019;-24
2022/11/10 06:27:44;;;;;;;26.58;21.00;;;15.60;99.90;;;;;;4589113;19;20014;-23
2022/11/10 06:29:15;;;;;;;27.10;20.65;;;15.60;99.90;;;;;;4592141;19;20018;-23
2022/11/10 06:30:47;;;;;;;25.95;19.77;;;15.60;99.90;;;;;;4593837;19;20463;-23
2022/11/10 06:32:18;;;;;;;25.73;20.35;;;15.60;99.90;;;;;;4593657;19;20499;-23
2022/11/10 06:33:49;;;;;;;25.33;19.80;;;15.60;99.90;;;;;;4593494;19;20471;-24
2022/11/10 06:35:20;;;;;;;22.40;17.92;;;15.60;99.90;;;;;;4592367;19;20526;-23
2022/11/10 06:36:51;;;;;;;23.77;19.75;;;15.70;99.90;;;;;;4594038;19;20058;-26
2022/11/10 06:38:23;;;;;;;26.73;18.77;;;15.70;99.90;;;;;;4593298;19;20017;-24
2022/11/10 06:39:54;;;;;;;25.45;19.85;;;15.70;99.90;;;;;;4593845;19;20010;-23
2022/11/10 06:41:25;;;;;;;24.65;18.95;;;15.70;99.90;;;;;;4593425;19;20018;-23
2022/11/10 06:42:56;;;;;;;25.40;19.90;;;15.70;99.90;;;;;;4594142;19;20007;-24
2022/11/10 06:44:27;;;;;;;;;;;15.70;99.90;;;;;;4593938;19;20014;-24
2022/11/10 06:45:58;;;;;;;31.73;21.73;;;15.70;99.90;;;;;;4593473;19;19919;-24
2022/11/10 06:47:30;;;;;;;40.00;26.00;;;15.70;99.90;;;;;;4592564;19;20009;-23
2022/11/10 06:49:01;;;;;;;41.85;26.77;;;15.70;99.90;;;;;;4592253;19;20371;-24
2022/11/10 06:50:33;;;;;;;44.42;27.80;;;15.70;99.90;;;;;;4593366;19;20440;-24
2022/11/10 06:52:04;;;;;;;43.17;26.60;;;15.80;99.90;;;;;;4592901;19;20377;-23
2022/11/10 06:53:35;;;;;;;41.92;27.50;;;15.80;99.90;;;;;;4593616;19;20348;-23
2022/11/10 06:55:06;;;;;;;37.75;26.20;;;15.90;99.90;;;;;;4591594;19;20042;-24
2022/11/10 06:56:37;;;;;;;36.97;23.95;;;15.90;99.90;;;;;;4591820;19;20014;-23
2022/11/10 06:58:09;;;;;;;33.60;23.15;;;16.00;99.90;;;;;;4592670;19;19999;-25
2022/11/10 06:59:40;;;;;;;28.85;20.67;;;16.00;99.90;;;;;;4593288;19;20014;-23
2022/11/10 07:01:11;;;;;;;26.45;20.00;;;16.10;99.90;;;;;;4592784;19;20035;-24
2022/11/10 07:02:42;;;;;;;26.30;19.25;;;16.10;99.90;;;;;;4592832;19;20018;-24
2022/11/10 07:04:14;;;;;;;25.90;19.52;;;16.10;99.90;;;;;;4592260;19;20022;-23
2022/11/10 07:05:45;;;;;;;24.83;17.80;;;16.10;99.90;;;;;;4592111;19;20341;-23
2022/11/10 07:07:17;;;;;;;;;;;16.10;99.90;;;;;;4593485;19;20504;-24
2022/11/10 07:08:48;;;;;;;25.48;18.08;;;16.10;99.90;;;;;;4592569;19;19911;-23
2022/11/10 07:10:19;;;;;;;26.55;19.17;;;16.10;99.90;;;;;;4591634;19;20013;-24
2022/11/10 07:11:50;;;;;;;26.42;19.15;;;16.10;99.90;;;;;;4592084;19;20015;-24
2022/11/10 07:13:21;;;;;;;24.75;18.55;;;16.10;99.90;;;;;;4592981;19;20034;-24
2022/11/10 07:14:53;;;;;;;24.15;17.52;;;16.10;99.90;;;;;;4592084;19;20081;-23
2022/11/10 07:16:24;;;;;;;25.63;18.35;;;16.10;99.90;;;;;;4592819;19;20014;-27
2022/11/10 07:17:55;;;;;;;31.52;19.92;;;16.00;99.90;;;;;;4592389;19;20013;-26
2022/11/10 07:19:26;;;;;;;29.83;19.27;;;16.00;99.90;;;;;;4592478;19;20480;-25
2022/11/10 07:20:57;;;;;;;30.98;20.55;;;16.00;99.90;;;;;;4592922;19;20006;-23
2022/11/10 07:22:28;;;;;;;28.92;19.50;;;16.00;99.90;;;;;;4593271;19;20019;-24
2022/11/10 07:23:59;;;;;;;25.08;18.38;;;16.00;99.90;;;;;;4591408;19;20015;-22
2022/11/10 07:25:31;;;;;;;24.95;17.58;;;16.10;99.90;;;;;;4591637;19;20034;-24
2022/11/10 07:27:03;;;;;;;23.67;17.40;;;16.10;99.90;;;;;;4591509;19;20007;-24
2022/11/10 07:28:34;;;;;;;20.45;14.93;;;16.20;99.90;;;;;;4591841;19;20342;-22
2022/11/10 07:30:05;;;;;;;19.55;15.00;;;16.20;99.90;;;;;;4592660;19;20017;-25
2022/11/10 07:31:37;;;;;;;23.25;17.63;;;16.30;99.90;;;;;;4591363;19;20385;-25
2022/11/10 07:33:12;;;;;;;20.75;15.85;;;16.40;99.90;;;;;;4592534;19;20011;-27
2022/11/10 07:34:43;;;;;;;23.55;17.70;;;16.30;99.90;;;;;;4591346;19;20010;-24
2022/11/10 07:36:14;;;;;;;24.45;17.88;;;16.20;99.90;;;;;;4592378;19;20006;-23
2022/11/10 07:37:49;;;;;;;25.10;18.02;;;16.20;99.90;;;;;;4591415;19;20007;-24
2022/11/10 07:39:24;;;;;;;21.08;17.02;;;16.20;99.90;;;;;;4591658;19;20014;-22
2022/11/10 07:40:56;;;;;;;21.00;15.82;;;16.10;99.90;;;;;;4592092;19;20019;-23
2022/11/10 07:42:27;;;;;;;21.27;14.88;;;16.10;99.90;;;;;;4589994;19;20078;-22
2022/11/10 07:43:58;;;;;;;26.52;15.65;;;16.10;99.90;;;;;;4590260;19;20354;-24
2022/11/10 07:45:30;;;;;;;19.23;14.50;;;16.10;99.90;;;;;;4592624;19;20010;-25
2022/11/10 07:47:01;;;;;;;21.52;14.40;;;16.20;99.90;;;;;;4590869;19;20346;-22
2022/11/10 07:48:33;;;;;;;;;;;16.10;99.90;;;;;;4592319;19;20039;-24
2022/11/10 07:50:05;;;;;;;17.65;14.27;;;16.10;99.90;;;;;;4590567;19;20022;-24
2022/11/10 07:51:36;;;;;;;;;;;16.10;99.90;;;;;;4591031;19;20468;-22
2022/11/10 07:53:09;;;;;;;18.42;13.30;;;16.10;99.90;;;;;;4589757;19;19915;-23
2022/11/10 07:54:41;;;;;;;17.10;13.32;;;16.10;99.90;;;;;;4589398;19;20052;-23
2022/11/10 07:56:13;;;;;;;18.00;13.25;;;16.10;99.90;;;;;;4592860;19;20018;-22
2022/11/10 07:57:44;;;;;;;18.92;13.98;;;16.10;99.90;;;;;;4592020;19;20011;-23
2022/11/10 07:59:15;;;;;;;18.83;13.80;;;16.10;99.90;;;;;;4591539;19;20495;-23
2022/11/10 08:00:47;;;;;;;;;;;16.00;99.90;;;;;;4591175;19;20021;-24
2022/11/10 08:02:18;;;;;;;19.35;13.73;;;16.10;99.90;;;;;;4588802;19;19918;-23
2022/11/10 08:03:51;;;;;;;;;;;16.10;99.90;;;;;;4591082;19;20349;-27